Time;durP1;ratioP1;P1;durP2;ratioP2;P2;SDS_P1;SDS_P2;PMS_P1;PMS_P2;Temp;Humidity;BMP_temperature;BMP_pressure;BME280_temperature;BME280_humidity;BME280_pressure;Samples;Min_cycle;Max_cycle;Signal;HPM_P1;HPM_P2
2022/12/25 00:09:50;;;;;;;19.80;9.30;;;;;;;5.92;100.00;98680.36;420357;1292;99343;-40
2022/12/25 00:19:57;;;;;;;20.10;13.60;;;;;;;5.84;100.00;98688.25;420388;1291;111302;-39
2022/12/25 00:30:05;;;;;;;24.80;13.30;;;;;;;5.70;100.00;98701.86;420411;1298;109186;-41
2022/12/25 00:40:13;;;;;;;28.50;15.00;;;;;;;5.71;100.00;98723.26;420440;1301;98356;-40
2022/12/25 00:50:21;;;;;;;58.60;28.20;;;;;;;5.71;100.00;98743.27;420534;1294;108031;-40
2022/12/25 01:00:28;;;;;;;33.00;18.40;;;;;;;5.51;100.00;98756.29;420472;1301;99236;-41
2022/12/25 01:10:35;;;;;;;28.80;14.50;;;;;;;5.28;100.00;98754.99;420515;1298;112134;-40
2022/12/25 01:20:43;;;;;;;20.90;12.90;;;;;;;5.25;100.00;98766.23;420419;1301;107840;-40
2022/12/25 01:40:54;;;;;;;30.20;12.30;;;;;;;5.38;100.00;98760.24;420414;1301;106385;-40
2022/12/25 01:51:05;;;;;;;24.30;14.60;;;;;;;5.49;100.00;98766.10;420387;1292;99227;-40
2022/12/25 02:01:13;;;;;;;22.10;12.40;;;;;;;5.59;100.00;98775.13;420451;1292;111310;-39
2022/12/25 02:21:46;;;;;;;24.70;13.70;;;;;;;5.60;100.00;98798.46;420466;1293;98014;-41
2022/12/25 03:13:19;;;;;;;17.00;8.90;;;;;;;5.83;100.00;98813.88;420610;1290;99249;-40
2022/12/25 04:36:48;;;;;;;18.10;8.90;;;;;;;5.79;100.00;98876.92;420594;1298;112372;-40
2022/12/25 04:46:55;;;;;;;14.50;8.10;;;;;;;5.75;100.00;98887.52;420614;1298;107946;-40
2022/12/25 04:57:03;;;;;;;19.20;8.40;;;;;;;5.79;100.00;98892.42;420549;1290;99212;-41
2022/12/25 05:07:10;;;;;;;15.10;8.10;;;;;;;5.76;100.00;98886.64;420532;1291;107933;-40
2022/12/25 05:17:17;;;;;;;15.80;10.10;;;;;;;5.76;100.00;98890.06;420509;1283;99329;-40
2022/12/25 05:27:24;;;;;;;21.40;10.40;;;;;;;5.77;100.00;98893.19;420554;1290;110969;-40
2022/12/25 05:37:31;;;;;;;18.20;8.60;;;;;;;5.80;100.00;98904.74;420587;1299;107217;-40
2022/12/25 05:47:38;;;;;;;17.40;8.70;;;;;;;5.77;100.00;98916.31;420686;1290;98369;-39
2022/12/25 05:57:45;;;;;;;19.50;9.80;;;;;;;5.74;100.00;98920.50;420640;1291;109487;-40
2022/12/25 06:07:52;;;;;;;16.10;8.90;;;;;;;5.77;100.00;98933.95;420477;1283;99308;-40
2022/12/25 06:28:07;;;;;;;14.40;9.90;;;;;;;5.76;100.00;98952.02;420549;1292;107241;-40
2022/12/25 06:38:14;;;;;;;23.00;8.70;;;;;;;5.76;100.00;98981.83;420663;1298;98528;-40
2022/12/25 06:48:22;;;;;;;16.90;8.50;;;;;;;5.72;100.00;99004.11;420608;1295;108617;-39
2022/12/25 06:58:29;;;;;;;16.10;9.40;;;;;;;5.56;100.00;99010.59;420593;1292;99250;-40
2022/12/25 07:08:38;;;;;;;16.80;9.50;;;;;;;5.45;100.00;99020.66;420598;1298;110723;-40
2022/12/25 07:18:46;;;;;;;16.70;8.80;;;;;;;5.48;100.00;99044.73;420677;1291;107509;-40
2022/12/25 07:28:54;;;;;;;18.80;9.30;;;;;;;5.58;100.00;99059.51;420718;1298;99225;-39
2022/12/25 07:39:01;;;;;;;25.80;12.00;;;;;;;5.66;100.00;99073.95;420573;1298;108286;-39
2022/12/25 07:49:09;;;;;;;21.10;11.40;;;;;;;5.83;100.00;99078.20;420748;1290;99365;-40
2022/12/25 07:59:16;;;;;;;25.10;15.00;;;;;;;5.89;100.00;99082.79;420715;1298;110885;-39
2022/12/25 08:09:24;;;;;;;33.50;16.90;;;;;;;5.79;100.00;99089.31;420688;1291;106986;-39
2022/12/25 08:19:39;;;;;;;41.40;23.90;;;;;;;5.60;99.93;99096.17;420652;1292;117739;-39
2022/12/25 08:29:46;;;;;;;41.30;21.90;;;;;;;5.55;99.78;99099.03;420618;1283;108174;-40
2022/12/25 08:39:53;;;;;;;36.40;22.80;;;;;;;5.56;99.71;99092.39;420906;1298;99247;-41
2022/12/25 08:50:01;;;;;;;38.20;23.40;;;;;;;5.73;99.87;99104.71;420797;1291;111599;-39
2022/12/25 09:00:10;;;;;;;43.80;25.20;;;;;;;5.90;99.91;99112.20;420796;1291;107538;-39
2022/12/25 09:10:18;;;;;;;43.20;26.00;;;;;;;6.13;99.84;99122.15;420876;1291;98861;-39
2022/12/25 09:20:25;;;;;;;44.90;27.70;;;;;;;6.21;99.92;99132.41;420884;1298;108167;-39
2022/12/25 09:30:33;;;;;;;41.30;25.50;;;;;;;6.27;99.94;99138.35;420910;1294;99224;-39
2022/12/25 09:40:40;;;;;;;30.60;19.20;;;;;;;6.33;99.78;99140.17;420772;1298;111145;-39
2022/12/25 09:50:46;;;;;;;29.80;16.70;;;;;;;6.74;99.92;99138.62;420884;1291;107442;-41
2022/12/25 10:00:57;;;;;;;28.60;18.30;;;;;;;7.21;100.00;99130.52;420702;1292;99330;-39
2022/12/25 10:11:02;;;;;;;26.20;14.50;;;;;;;7.62;99.99;99119.05;420699;1298;107907;-40
2022/12/25 10:21:13;;;;;;;23.80;11.80;;;;;;;7.80;99.97;99114.55;420842;1297;99374;-40
2022/12/25 10:31:25;;;;;;;22.20;10.00;;;;;;;7.92;99.48;99098.13;420715;1292;111485;-40
2022/12/25 10:41:34;;;;;;;36.60;14.00;;;;;;;8.09;99.41;99100.77;420649;1289;107286;-40
2022/12/25 10:51:42;;;;;;;35.30;16.60;;;;;;;8.26;99.35;99099.48;420826;1298;99242;-40
2022/12/25 11:01:49;;;;;;;39.10;19.80;;;;;;;8.14;99.12;99086.23;420914;1285;108762;-40
2022/12/25 11:12:02;;;;;;;33.10;18.00;;;;;;;8.24;99.29;99072.98;420757;1283;98010;-39
2022/12/25 11:32:28;;;;;;;28.40;11.10;;;;;;;8.42;98.47;99061.23;420830;1291;106713;-40
2022/12/25 11:42:37;;;;;;;30.60;12.20;;;;;;;8.50;98.35;99065.67;420889;1298;98026;-40
2022/12/25 11:52:47;;;;;;;26.30;12.50;;;;;;;8.48;98.30;99062.71;420863;1294;108922;-40
2022/12/25 12:02:59;;;;;;;25.10;12.20;;;;;;;8.41;98.17;99064.71;420573;1298;98386;-40
2022/12/25 12:13:12;;;;;;;22.60;10.50;;;;;;;8.36;97.74;99063.84;420716;1298;110436;-40
2022/12/25 12:23:19;;;;;;;26.80;13.00;;;;;;;8.39;97.66;99063.79;420726;1298;106910;-40
2022/12/25 12:33:28;;;;;;;29.00;10.40;;;;;;;8.42;97.63;99047.73;420707;1298;99249;-40
2022/12/25 12:53:39;;;;;;;22.10;10.70;;;;;;;8.37;97.30;99042.95;420656;1298;99397;-41
2022/12/25 13:04:17;;;;;;;23.00;8.40;;;;;;;8.29;96.96;99043.95;420663;1298;110904;-39
2022/12/25 13:14:25;;;;;;;17.20;8.20;;;;;;;8.26;96.91;99052.29;420628;1298;107904;-39
2022/12/25 13:24:35;;;;;;;29.10;10.80;;;;;;;8.18;96.64;99049.99;420887;1298;99233;-39
2022/12/25 13:34:44;;;;;;;26.90;11.70;;;;;;;8.08;96.83;99044.08;420688;1288;108307;-40
2022/12/25 13:44:55;;;;;;;29.30;13.80;;;;;;;7.88;96.56;99042.58;420741;1289;99262;-40
2022/12/25 13:55:02;;;;;;;31.60;15.70;;;;;;;7.73;96.29;99044.75;420678;1298;113172;-39
2022/12/25 14:05:25;;;;;;;34.50;15.40;;;;;;;7.68;96.12;99043.75;420759;1290;108007;-40
2022/12/25 14:15:33;;;;;;;34.70;16.80;;;;;;;7.58;96.10;99043.29;420599;1298;99258;-39
2022/12/25 14:25:44;;;;;;;44.60;22.60;;;;;;;7.36;96.00;99061.29;420744;1290;106834;-39
2022/12/25 14:35:53;;;;;;;56.20;29.80;;;;;;;7.00;95.88;99056.10;420488;1298;365639;-39
2022/12/25 14:56:10;;;;;;;61.90;37.40;;;;;;;6.32;95.73;99041.78;420832;1298;106863;-41
2022/12/25 15:06:19;;;;;;;62.90;39.00;;;;;;;6.08;95.88;99046.63;420540;1291;99230;-39
2022/12/25 15:16:30;;;;;;;80.50;45.90;;;;;;;5.94;95.76;99067.50;420804;1298;108039;-39
2022/12/25 15:26:38;;;;;;;92.10;49.70;;;;;;;5.67;95.87;99082.73;420648;1298;99256;-39
2022/12/25 15:36:45;;;;;;;131.20;66.50;;;;;;;5.23;95.33;99069.35;420664;1298;112077;-40
2022/12/25 15:46:53;;;;;;;122.00;62.60;;;;;;;4.74;95.42;99042.70;420703;1298;108537;-40
2022/12/25 15:57:04;;;;;;;94.20;52.30;;;;;;;4.61;95.98;99031.13;420886;1292;99240;-39
2022/12/25 16:07:10;;;;;;;79.50;44.90;;;;;;;4.80;96.49;99023.52;420667;1298;107905;-40
2022/12/25 16:17:18;;;;;;;71.80;35.70;;;;;;;5.02;96.63;99025.07;420719;1291;99331;-41
2022/12/25 16:27:25;;;;;;;73.40;40.90;;;;;;;5.16;96.47;99008.48;420731;1291;111142;-39
2022/12/25 16:37:33;;;;;;;73.20;42.70;;;;;;;5.20;96.32;99003.32;420549;1304;108104;-40
2022/12/25 16:47:40;;;;;;;69.30;36.30;;;;;;;5.22;96.33;98987.77;420556;1298;99240;-40
2022/12/25 17:07:53;;;;;;;57.60;32.90;;;;;;;5.21;96.24;98980.44;420722;1291;99249;-40
2022/12/25 17:17:59;;;;;;;76.30;40.20;;;;;;;5.15;96.27;98959.77;420663;1292;111645;-40
2022/12/25 17:28:05;;;;;;;65.20;36.20;;;;;;;5.11;96.36;98948.84;420635;1298;107388;-40
2022/12/25 17:38:13;;;;;;;68.20;39.60;;;;;;;5.02;96.24;98959.06;420572;1299;99233;-40
2022/12/25 17:48:20;;;;;;;61.50;38.50;;;;;;;4.91;96.35;98956.29;420810;1294;107986;-39
2022/12/25 17:58:28;;;;;;;59.40;32.50;;;;;;;4.86;96.29;98959.83;420522;1298;98723;-39
2022/12/25 18:08:36;;;;;;;57.70;31.80;;;;;;;4.87;96.54;98967.05;420765;1298;111288;-42
2022/12/25 18:18:46;;;;;;;61.00;33.90;;;;;;;4.93;96.56;98955.49;420686;1298;108209;-39
2022/12/25 18:28:58;;;;;;;55.20;30.80;;;;;;;4.97;96.42;98970.80;420720;1291;99131;-41
2022/12/25 18:39:03;;;;;;;50.50;28.70;;;;;;;5.02;96.62;98938.55;420715;1299;108515;-39
2022/12/25 18:49:11;;;;;;;61.40;33.70;;;;;;;5.05;96.55;98942.61;420717;1291;98106;-40
2022/12/25 18:59:18;;;;;;;99.30;50.30;;;;;;;5.03;96.36;98927.77;420689;1290;111181;-40
2022/12/25 19:09:24;;;;;;;69.00;38.30;;;;;;;4.97;96.22;98919.42;420699;1299;108216;-42
2022/12/25 19:19:32;;;;;;;59.90;33.40;;;;;;;4.87;96.38;98901.70;420673;1292;99243;-39
2022/12/25 19:29:39;;;;;;;64.50;37.10;;;;;;;4.86;96.57;98890.82;420661;1299;106781;-40
2022/12/25 19:39:47;;;;;;;50.20;26.60;;;;;;;4.90;96.58;98888.60;420726;1290;99248;-40
2022/12/25 19:49:54;;;;;;;48.80;28.20;;;;;;;5.01;96.67;98879.50;420668;1300;111260;-39
2022/12/25 20:00:10;;;;;;;53.00;28.10;;;;;;;5.05;96.44;98865.55;420659;1283;108670;-40
2022/12/25 20:10:17;;;;;;;53.40;28.30;;;;;;;5.04;96.46;98848.21;420616;1299;98831;-40
2022/12/25 20:20:25;;;;;;;46.50;25.40;;;;;;;5.05;96.28;98845.73;420502;1298;108131;-39
2022/12/25 20:30:32;;;;;;;55.60;26.50;;;;;;;5.03;96.12;98846.88;420705;1292;99045;-42
2022/12/25 20:40:40;;;;;;;38.60;22.50;;;;;;;5.00;96.26;98825.08;420639;1305;111558;-41
2022/12/25 20:51:14;;;;;;;37.10;20.70;;;;;;;5.05;96.17;98802.09;420670;1299;109281;-40
2022/12/25 21:01:22;;;;;;;47.20;24.00;;;;;;;5.14;96.24;98796.98;421884;1298;99213;-39
2022/12/25 21:21:41;;;;;;;35.00;19.00;;;;;;;5.17;95.84;98780.99;420706;1298;99226;-40
2022/12/25 21:42:13;;;;;;;35.20;18.00;;;;;;;5.29;95.87;98742.70;420638;1287;108470;-39
2022/12/25 21:52:21;;;;;;;31.20;18.10;;;;;;;5.35;95.81;98727.15;420854;1298;99163;-39
2022/12/25 22:02:28;;;;;;;48.20;23.20;;;;;;;5.36;95.67;98705.66;420694;1296;107747;-40
2022/12/25 22:23:01;;;;;;;32.80;19.40;;;;;;;5.32;95.49;98713.06;420737;1292;111570;-39
2022/12/25 22:33:08;;;;;;;38.90;21.80;;;;;;;5.34;95.34;98707.02;420738;1298;108425;-39
2022/12/25 22:43:15;;;;;;;50.50;23.70;;;;;;;5.28;95.14;98691.75;420805;1284;99368;-39
2022/12/25 22:53:23;;;;;;;38.50;20.30;;;;;;;5.26;95.04;98668.39;420693;1298;107376;-40
2022/12/25 23:03:31;;;;;;;43.40;21.40;;;;;;;5.31;94.96;98679.17;420464;1290;99274;-39
2022/12/25 23:34:27;;;;;;;41.80;23.60;;;;;;;5.32;94.53;98642.80;420579;1298;99252;-38
2022/12/25 23:44:34;;;;;;;41.70;22.10;;;;;;;5.32;94.40;98629.92;420509;1298;109459;-39
2022/12/25 23:54:41;;;;;;;53.70;26.90;;;;;;;5.31;94.66;98626.98;420695;1298;98385;-39
